sensor_id;sensor_type;location;lat;lon;timestamp;P1;durP1;ratioP1;P2;durP2;ratioP2
14770;SDS011;7477;45.222;5.688;2023-07-16T00:01:43;1.30;;;1.20;;
14770;SDS011;7477;45.222;5.688;2023-07-16T00:05:02;1.40;;;1.30;;
14770;SDS011;7477;45.222;5.688;2023-07-16T00:08:22;1.77;;;1.50;;
14770;SDS011;7477;45.222;5.688;2023-07-16T00:11:41;1.40;;;1.30;;
14770;SDS011;7477;45.222;5.688;2023-07-16T00:15:01;5.95;;;1.58;;
14770;SDS011;7477;45.222;5.688;2023-07-16T00:18:20;1.30;;;1.20;;
14770;SDS011;7477;45.222;5.688;2023-07-16T00:21:39;1.45;;;1.35;;
14770;SDS011;7477;45.222;5.688;2023-07-16T00:24:58;2.50;;;1.50;;
14770;SDS011;7477;45.222;5.688;2023-07-16T00:28:17;1.30;;;1.20;;
14770;SDS011;7477;45.222;5.688;2023-07-16T00:31:36;2.72;;;1.30;;
14770;SDS011;7477;45.222;5.688;2023-07-16T00:34:55;1.38;;;1.27;;
14770;SDS011;7477;45.222;5.688;2023-07-16T00:38:16;1.40;;;1.30;;
14770;SDS011;7477;45.222;5.688;2023-07-16T00:41:36;2.85;;;1.30;;
14770;SDS011;7477;45.222;5.688;2023-07-16T00:44:55;1.30;;;1.20;;
14770;SDS011;7477;45.222;5.688;2023-07-16T00:48:15;2.35;;;1.63;;
14770;SDS011;7477;45.222;5.688;2023-07-16T00:51:34;1.30;;;1.20;;
14770;SDS011;7477;45.222;5.688;2023-07-16T00:54:54;3.13;;;1.17;;
14770;SDS011;7477;45.222;5.688;2023-07-16T00:58:13;1.77;;;1.45;;
14770;SDS011;7477;45.222;5.688;2023-07-16T01:01:32;1.30;;;1.20;;
14770;SDS011;7477;45.222;5.688;2023-07-16T01:04:51;2.03;;;1.50;;
14770;SDS011;7477;45.222;5.688;2023-07-16T01:08:10;1.48;;;1.38;;
14770;SDS011;7477;45.222;5.688;2023-07-16T01:11:31;1.92;;;1.73;;
14770;SDS011;7477;45.222;5.688;2023-07-16T01:14:53;1.73;;;1.63;;
14770;SDS011;7477;45.222;5.688;2023-07-16T01:18:14;1.50;;;1.40;;
14770;SDS011;7477;45.222;5.688;2023-07-16T01:21:35;1.63;;;1.52;;
14770;SDS011;7477;45.222;5.688;2023-07-16T01:32:47;1.65;;;1.55;;
14770;SDS011;7477;45.222;5.688;2023-07-16T01:36:08;4.95;;;1.52;;
14770;SDS011;7477;45.222;5.688;2023-07-16T01:39:28;2.40;;;1.70;;
14770;SDS011;7477;45.222;5.688;2023-07-16T01:42:49;2.00;;;1.60;;
14770;SDS011;7477;45.222;5.688;2023-07-16T01:46:08;2.90;;;1.50;;
14770;SDS011;7477;45.222;5.688;2023-07-16T01:49:27;2.72;;;1.80;;
14770;SDS011;7477;45.222;5.688;2023-07-16T01:52:46;2.90;;;1.83;;
14770;SDS011;7477;45.222;5.688;2023-07-16T01:56:05;2.15;;;1.63;;
14770;SDS011;7477;45.222;5.688;2023-07-16T01:59:24;2.50;;;1.58;;
14770;SDS011;7477;45.222;5.688;2023-07-16T02:02:44;3.63;;;1.77;;
14770;SDS011;7477;45.222;5.688;2023-07-16T02:06:03;2.92;;;1.60;;
14770;SDS011;7477;45.222;5.688;2023-07-16T02:09:22;1.90;;;1.50;;
14770;SDS011;7477;45.222;5.688;2023-07-16T02:12:42;2.03;;;1.90;;
14770;SDS011;7477;45.222;5.688;2023-07-16T02:16:01;1.60;;;1.50;;
14770;SDS011;7477;45.222;5.688;2023-07-16T02:19:21;1.73;;;1.63;;
14770;SDS011;7477;45.222;5.688;2023-07-16T02:22:40;1.83;;;1.35;;
14770;SDS011;7477;45.222;5.688;2023-07-16T02:26:00;2.10;;;1.70;;
14770;SDS011;7477;45.222;5.688;2023-07-16T02:29:19;2.50;;;1.52;;
14770;SDS011;7477;45.222;5.688;2023-07-16T02:32:38;1.70;;;1.60;;
14770;SDS011;7477;45.222;5.688;2023-07-16T02:35:57;2.20;;;1.70;;
14770;SDS011;7477;45.222;5.688;2023-07-16T02:39:16;1.90;;;1.70;;
14770;SDS011;7477;45.222;5.688;2023-07-16T02:42:36;1.80;;;1.65;;
14770;SDS011;7477;45.222;5.688;2023-07-16T02:45:56;2.13;;;1.60;;
14770;SDS011;7477;45.222;5.688;2023-07-16T02:49:15;1.40;;;1.30;;
14770;SDS011;7477;45.222;5.688;2023-07-16T02:52:34;2.10;;;1.77;;
14770;SDS011;7477;45.222;5.688;2023-07-16T02:55:53;1.70;;;1.60;;
14770;SDS011;7477;45.222;5.688;2023-07-16T02:59:12;2.17;;;1.60;;
14770;SDS011;7477;45.222;5.688;2023-07-16T03:02:31;2.50;;;1.35;;
14770;SDS011;7477;45.222;5.688;2023-07-16T03:05:50;2.30;;;1.70;;
14770;SDS011;7477;45.222;5.688;2023-07-16T03:09:09;2.85;;;1.70;;
14770;SDS011;7477;45.222;5.688;2023-07-16T03:12:28;1.92;;;1.58;;
14770;SDS011;7477;45.222;5.688;2023-07-16T03:15:47;1.40;;;1.30;;
14770;SDS011;7477;45.222;5.688;2023-07-16T03:19:06;1.77;;;1.58;;
14770;SDS011;7477;45.222;5.688;2023-07-16T03:22:25;2.22;;;1.80;;
14770;SDS011;7477;45.222;5.688;2023-07-16T03:25:44;1.90;;;1.67;;
14770;SDS011;7477;45.222;5.688;2023-07-16T03:29:03;1.77;;;1.40;;
14770;SDS011;7477;45.222;5.688;2023-07-16T03:32:23;1.75;;;1.60;;
14770;SDS011;7477;45.222;5.688;2023-07-16T03:35:42;3.13;;;1.60;;
14770;SDS011;7477;45.222;5.688;2023-07-16T03:39:02;2.08;;;1.67;;
14770;SDS011;7477;45.222;5.688;2023-07-16T03:42:22;2.05;;;1.75;;
14770;SDS011;7477;45.222;5.688;2023-07-16T03:45:41;3.38;;;2.00;;
14770;SDS011;7477;45.222;5.688;2023-07-16T03:49:01;2.78;;;1.75;;
14770;SDS011;7477;45.222;5.688;2023-07-16T03:52:21;1.70;;;1.60;;
14770;SDS011;7477;45.222;5.688;2023-07-16T03:55:40;2.13;;;1.70;;
14770;SDS011;7477;45.222;5.688;2023-07-16T03:58:59;2.60;;;1.48;;
14770;SDS011;7477;45.222;5.688;2023-07-16T04:02:18;2.63;;;1.65;;
14770;SDS011;7477;45.222;5.688;2023-07-16T04:05:37;1.90;;;1.65;;
14770;SDS011;7477;45.222;5.688;2023-07-16T04:08:56;2.70;;;2.10;;
14770;SDS011;7477;45.222;5.688;2023-07-16T04:12:15;1.88;;;1.67;;
14770;SDS011;7477;45.222;5.688;2023-07-16T04:15:34;1.98;;;1.65;;
14770;SDS011;7477;45.222;5.688;2023-07-16T04:18:54;2.05;;;1.67;;
14770;SDS011;7477;45.222;5.688;2023-07-16T04:22:12;1.65;;;1.50;;
14770;SDS011;7477;45.222;5.688;2023-07-16T04:25:31;3.10;;;1.95;;
14770;SDS011;7477;45.222;5.688;2023-07-16T04:28:51;2.60;;;1.90;;
14770;SDS011;7477;45.222;5.688;2023-07-16T04:32:10;2.47;;;1.70;;
14770;SDS011;7477;45.222;5.688;2023-07-16T04:35:29;2.95;;;1.70;;
14770;SDS011;7477;45.222;5.688;2023-07-16T04:38:49;2.85;;;1.45;;
14770;SDS011;7477;45.222;5.688;2023-07-16T04:42:08;1.65;;;1.52;;
14770;SDS011;7477;45.222;5.688;2023-07-16T04:45:27;1.38;;;1.27;;
14770;SDS011;7477;45.222;5.688;2023-07-16T04:48:46;1.60;;;1.50;;
14770;SDS011;7477;45.222;5.688;2023-07-16T04:52:05;2.88;;;1.80;;
14770;SDS011;7477;45.222;5.688;2023-07-16T04:55:25;1.95;;;1.70;;
14770;SDS011;7477;45.222;5.688;2023-07-16T04:58:44;1.77;;;1.60;;
14770;SDS011;7477;45.222;5.688;2023-07-16T05:02:04;1.52;;;1.40;;
14770;SDS011;7477;45.222;5.688;2023-07-16T05:05:24;1.70;;;1.60;;
14770;SDS011;7477;45.222;5.688;2023-07-16T05:08:43;1.70;;;1.60;;
14770;SDS011;7477;45.222;5.688;2023-07-16T05:12:02;2.10;;;1.50;;
14770;SDS011;7477;45.222;5.688;2023-07-16T05:15:22;3.78;;;1.77;;
14770;SDS011;7477;45.222;5.688;2023-07-16T05:18:41;1.52;;;1.42;;
14770;SDS011;7477;45.222;5.688;2023-07-16T05:22:00;3.13;;;1.77;;
14770;SDS011;7477;45.222;5.688;2023-07-16T05:25:19;2.38;;;1.85;;
14770;SDS011;7477;45.222;5.688;2023-07-16T05:28:38;1.77;;;1.67;;
14770;SDS011;7477;45.222;5.688;2023-07-16T05:31:58;2.25;;;1.90;;
14770;SDS011;7477;45.222;5.688;2023-07-16T05:35:17;2.05;;;1.80;;
14770;SDS011;7477;45.222;5.688;2023-07-16T05:38:36;4.30;;;1.88;;
14770;SDS011;7477;45.222;5.688;2023-07-16T05:41:55;2.65;;;1.73;;
14770;SDS011;7477;45.222;5.688;2023-07-16T05:45:14;3.70;;;1.90;;
14770;SDS011;7477;45.222;5.688;2023-07-16T05:48:33;1.50;;;1.40;;
14770;SDS011;7477;45.222;5.688;2023-07-16T05:51:52;2.50;;;1.50;;
14770;SDS011;7477;45.222;5.688;2023-07-16T05:55:13;4.68;;;1.88;;
14770;SDS011;7477;45.222;5.688;2023-07-16T05:58:32;2.20;;;1.60;;
14770;SDS011;7477;45.222;5.688;2023-07-16T06:01:51;2.35;;;1.50;;
14770;SDS011;7477;45.222;5.688;2023-07-16T06:05:10;1.60;;;1.50;;
14770;SDS011;7477;45.222;5.688;2023-07-16T06:08:29;1.60;;;1.50;;
14770;SDS011;7477;45.222;5.688;2023-07-16T06:11:49;2.50;;;1.88;;
14770;SDS011;7477;45.222;5.688;2023-07-16T06:15:08;3.60;;;1.60;;
14770;SDS011;7477;45.222;5.688;2023-07-16T06:18:28;1.77;;;1.60;;
14770;SDS011;7477;45.222;5.688;2023-07-16T06:21:47;4.57;;;1.55;;
14770;SDS011;7477;45.222;5.688;2023-07-16T06:25:06;1.83;;;1.65;;
14770;SDS011;7477;45.222;5.688;2023-07-16T06:28:26;3.15;;;1.83;;
14770;SDS011;7477;45.222;5.688;2023-07-16T06:31:55;4.85;;;1.90;;
14770;SDS011;7477;45.222;5.688;2023-07-16T06:35:16;1.95;;;1.60;;
14770;SDS011;7477;45.222;5.688;2023-07-16T06:38:35;2.30;;;1.95;;
14770;SDS011;7477;45.222;5.688;2023-07-16T06:41:54;2.65;;;1.92;;
14770;SDS011;7477;45.222;5.688;2023-07-16T06:45:13;1.63;;;1.50;;
14770;SDS011;7477;45.222;5.688;2023-07-16T06:48:32;5.43;;;1.92;;
14770;SDS011;7477;45.222;5.688;2023-07-16T06:51:52;1.40;;;1.30;;
14770;SDS011;7477;45.222;5.688;2023-07-16T06:55:11;3.22;;;1.58;;
14770;SDS011;7477;45.222;5.688;2023-07-16T06:58:31;1.73;;;1.50;;
14770;SDS011;7477;45.222;5.688;2023-07-16T07:01:54;1.90;;;1.70;;
14770;SDS011;7477;45.222;5.688;2023-07-16T07:05:13;3.65;;;1.77;;
14770;SDS011;7477;45.222;5.688;2023-07-16T07:08:32;1.77;;;1.45;;
14770;SDS011;7477;45.222;5.688;2023-07-16T07:11:52;1.60;;;1.40;;
14770;SDS011;7477;45.222;5.688;2023-07-16T07:15:11;2.50;;;1.63;;
14770;SDS011;7477;45.222;5.688;2023-07-16T07:18:30;1.83;;;1.60;;
14770;SDS011;7477;45.222;5.688;2023-07-16T07:21:49;3.17;;;1.80;;
14770;SDS011;7477;45.222;5.688;2023-07-16T07:25:09;3.25;;;1.83;;
14770;SDS011;7477;45.222;5.688;2023-07-16T07:28:28;1.83;;;1.73;;
14770;SDS011;7477;45.222;5.688;2023-07-16T07:31:47;2.38;;;1.77;;
14770;SDS011;7477;45.222;5.688;2023-07-16T07:35:06;2.40;;;1.83;;
14770;SDS011;7477;45.222;5.688;2023-07-16T07:38:26;1.88;;;1.65;;
14770;SDS011;7477;45.222;5.688;2023-07-16T07:41:45;2.10;;;1.58;;
14770;SDS011;7477;45.222;5.688;2023-07-16T07:45:04;2.50;;;1.70;;
14770;SDS011;7477;45.222;5.688;2023-07-16T07:48:24;2.13;;;1.60;;
14770;SDS011;7477;45.222;5.688;2023-07-16T07:51:43;2.10;;;1.70;;
14770;SDS011;7477;45.222;5.688;2023-07-16T07:55:03;1.55;;;1.45;;
14770;SDS011;7477;45.222;5.688;2023-07-16T07:58:23;2.47;;;1.90;;
14770;SDS011;7477;45.222;5.688;2023-07-16T08:01:42;2.80;;;2.00;;
14770;SDS011;7477;45.222;5.688;2023-07-16T08:05:01;2.95;;;1.85;;
14770;SDS011;7477;45.222;5.688;2023-07-16T08:08:20;2.10;;;1.52;;
14770;SDS011;7477;45.222;5.688;2023-07-16T08:11:39;2.00;;;1.80;;
14770;SDS011;7477;45.222;5.688;2023-07-16T08:14:58;2.33;;;1.58;;
14770;SDS011;7477;45.222;5.688;2023-07-16T08:18:17;2.20;;;1.77;;
14770;SDS011;7477;45.222;5.688;2023-07-16T08:21:37;2.72;;;1.83;;
14770;SDS011;7477;45.222;5.688;2023-07-16T08:24:56;2.03;;;1.77;;
14770;SDS011;7477;45.222;5.688;2023-07-16T08:28:15;4.13;;;1.88;;
14770;SDS011;7477;45.222;5.688;2023-07-16T08:31:34;2.03;;;1.70;;
14770;SDS011;7477;45.222;5.688;2023-07-16T08:34:53;1.90;;;1.70;;
14770;SDS011;7477;45.222;5.688;2023-07-16T08:38:12;2.53;;;1.75;;
14770;SDS011;7477;45.222;5.688;2023-07-16T08:41:32;3.28;;;1.60;;
14770;SDS011;7477;45.222;5.688;2023-07-16T08:44:51;1.83;;;1.63;;
14770;SDS011;7477;45.222;5.688;2023-07-16T08:48:11;1.52;;;1.42;;
14770;SDS011;7477;45.222;5.688;2023-07-16T08:51:31;2.00;;;1.60;;
14770;SDS011;7477;45.222;5.688;2023-07-16T08:54:52;3.50;;;2.08;;
14770;SDS011;7477;45.222;5.688;2023-07-16T08:58:13;2.03;;;1.85;;
14770;SDS011;7477;45.222;5.688;2023-07-16T09:01:33;1.80;;;1.60;;
14770;SDS011;7477;45.222;5.688;2023-07-16T09:04:52;2.22;;;1.98;;
14770;SDS011;7477;45.222;5.688;2023-07-16T09:08:12;2.78;;;1.90;;
14770;SDS011;7477;45.222;5.688;2023-07-16T09:11:32;2.17;;;1.95;;
14770;SDS011;7477;45.222;5.688;2023-07-16T09:14:52;1.90;;;1.70;;
14770;SDS011;7477;45.222;5.688;2023-07-16T09:18:11;2.22;;;1.77;;
14770;SDS011;7477;45.222;5.688;2023-07-16T09:21:30;2.72;;;1.90;;
14770;SDS011;7477;45.222;5.688;2023-07-16T09:24:52;2.20;;;2.00;;
14770;SDS011;7477;45.222;5.688;2023-07-16T09:28:11;7.43;;;3.50;;
14770;SDS011;7477;45.222;5.688;2023-07-16T09:31:31;4.07;;;1.92;;
14770;SDS011;7477;45.222;5.688;2023-07-16T09:34:50;2.30;;;2.00;;
14770;SDS011;7477;45.222;5.688;2023-07-16T09:41:29;2.05;;;1.85;;
14770;SDS011;7477;45.222;5.688;2023-07-16T09:44:49;3.13;;;2.22;;
14770;SDS011;7477;45.222;5.688;2023-07-16T09:48:12;3.72;;;1.77;;
14770;SDS011;7477;45.222;5.688;2023-07-16T09:51:33;2.10;;;1.90;;
14770;SDS011;7477;45.222;5.688;2023-07-16T09:54:57;2.17;;;1.75;;
14770;SDS011;7477;45.222;5.688;2023-07-16T09:58:20;2.22;;;1.75;;
14770;SDS011;7477;45.222;5.688;2023-07-16T10:01:42;2.25;;;1.90;;
14770;SDS011;7477;45.222;5.688;2023-07-16T10:08:50;2.42;;;2.00;;
14770;SDS011;7477;45.222;5.688;2023-07-16T10:15:29;2.63;;;1.77;;
14770;SDS011;7477;45.222;5.688;2023-07-16T10:18:52;2.00;;;1.80;;
14770;SDS011;7477;45.222;5.688;2023-07-16T10:22:14;1.63;;;1.52;;
14770;SDS011;7477;45.222;5.688;2023-07-16T10:25:34;1.98;;;1.70;;
14770;SDS011;7477;45.222;5.688;2023-07-16T10:28:53;2.92;;;1.88;;
14770;SDS011;7477;45.222;5.688;2023-07-16T10:32:12;3.25;;;2.28;;
14770;SDS011;7477;45.222;5.688;2023-07-16T10:35:34;2.75;;;1.95;;
14770;SDS011;7477;45.222;5.688;2023-07-16T10:38:54;1.80;;;1.70;;
14770;SDS011;7477;45.222;5.688;2023-07-16T10:42:13;2.38;;;2.05;;
14770;SDS011;7477;45.222;5.688;2023-07-16T10:45:34;3.60;;;2.30;;
14770;SDS011;7477;45.222;5.688;2023-07-16T10:48:53;2.42;;;2.00;;
14770;SDS011;7477;45.222;5.688;2023-07-16T10:52:12;2.95;;;2.03;;
14770;SDS011;7477;45.222;5.688;2023-07-16T10:55:31;3.10;;;2.33;;
14770;SDS011;7477;45.222;5.688;2023-07-16T10:58:56;2.85;;;1.95;;
14770;SDS011;7477;45.222;5.688;2023-07-16T11:02:16;3.50;;;2.35;;
14770;SDS011;7477;45.222;5.688;2023-07-16T11:05:36;4.35;;;1.92;;
14770;SDS011;7477;45.222;5.688;2023-07-16T11:09:05;4.10;;;2.22;;
14770;SDS011;7477;45.222;5.688;2023-07-16T11:12:27;2.70;;;2.03;;
14770;SDS011;7477;45.222;5.688;2023-07-16T11:15:47;3.42;;;2.10;;
14770;SDS011;7477;45.222;5.688;2023-07-16T11:19:06;2.83;;;1.80;;
14770;SDS011;7477;45.222;5.688;2023-07-16T11:22:26;2.95;;;2.20;;
14770;SDS011;7477;45.222;5.688;2023-07-16T11:25:47;4.05;;;2.30;;
14770;SDS011;7477;45.222;5.688;2023-07-16T11:29:14;3.13;;;2.10;;
14770;SDS011;7477;45.222;5.688;2023-07-16T11:32:37;4.20;;;2.17;;
14770;SDS011;7477;45.222;5.688;2023-07-16T11:36:01;2.42;;;1.85;;
14770;SDS011;7477;45.222;5.688;2023-07-16T11:39:20;3.65;;;2.35;;
14770;SDS011;7477;45.222;5.688;2023-07-16T11:42:40;2.80;;;2.17;;
14770;SDS011;7477;45.222;5.688;2023-07-16T11:46:02;3.65;;;1.95;;
14770;SDS011;7477;45.222;5.688;2023-07-16T11:49:22;3.40;;;1.80;;
14770;SDS011;7477;45.222;5.688;2023-07-16T11:52:41;2.47;;;2.28;;
14770;SDS011;7477;45.222;5.688;2023-07-16T11:56:00;4.47;;;2.42;;
14770;SDS011;7477;45.222;5.688;2023-07-16T11:59:20;2.88;;;2.05;;
14770;SDS011;7477;45.222;5.688;2023-07-16T12:02:40;2.15;;;1.95;;
14770;SDS011;7477;45.222;5.688;2023-07-16T12:05:59;9.05;;;2.15;;
14770;SDS011;7477;45.222;5.688;2023-07-16T12:09:18;2.33;;;1.90;;
14770;SDS011;7477;45.222;5.688;2023-07-16T12:12:37;5.97;;;2.13;;
14770;SDS011;7477;45.222;5.688;2023-07-16T12:15:57;3.38;;;2.00;;
14770;SDS011;7477;45.222;5.688;2023-07-16T12:19:16;3.25;;;1.92;;
14770;SDS011;7477;45.222;5.688;2023-07-16T12:22:35;4.32;;;1.90;;
14770;SDS011;7477;45.222;5.688;2023-07-16T12:25:55;2.40;;;1.92;;
14770;SDS011;7477;45.222;5.688;2023-07-16T12:29:14;3.17;;;1.88;;
14770;SDS011;7477;45.222;5.688;2023-07-16T12:32:33;3.35;;;2.00;;
14770;SDS011;7477;45.222;5.688;2023-07-16T12:35:52;5.10;;;2.28;;
14770;SDS011;7477;45.222;5.688;2023-07-16T12:39:12;2.85;;;2.03;;
14770;SDS011;7477;45.222;5.688;2023-07-16T12:42:31;2.90;;;1.95;;
14770;SDS011;7477;45.222;5.688;2023-07-16T12:45:50;4.30;;;2.20;;
14770;SDS011;7477;45.222;5.688;2023-07-16T12:49:09;2.85;;;2.05;;
14770;SDS011;7477;45.222;5.688;2023-07-16T12:52:28;4.28;;;2.05;;
14770;SDS011;7477;45.222;5.688;2023-07-16T12:55:47;3.53;;;1.80;;
14770;SDS011;7477;45.222;5.688;2023-07-16T12:59:06;3.67;;;1.80;;
14770;SDS011;7477;45.222;5.688;2023-07-16T13:02:25;4.32;;;2.15;;
14770;SDS011;7477;45.222;5.688;2023-07-16T13:05:45;2.65;;;1.95;;
14770;SDS011;7477;45.222;5.688;2023-07-16T13:09:05;3.42;;;2.10;;
14770;SDS011;7477;45.222;5.688;2023-07-16T13:12:24;4.88;;;2.08;;
14770;SDS011;7477;45.222;5.688;2023-07-16T13:15:44;3.65;;;2.30;;
14770;SDS011;7477;45.222;5.688;2023-07-16T13:19:04;3.30;;;1.88;;
14770;SDS011;7477;45.222;5.688;2023-07-16T13:22:23;3.25;;;1.73;;
14770;SDS011;7477;45.222;5.688;2023-07-16T13:25:42;3.80;;;2.25;;
14770;SDS011;7477;45.222;5.688;2023-07-16T13:29:01;3.42;;;2.00;;
14770;SDS011;7477;45.222;5.688;2023-07-16T13:32:20;3.90;;;2.10;;
14770;SDS011;7477;45.222;5.688;2023-07-16T13:35:39;3.13;;;2.10;;
14770;SDS011;7477;45.222;5.688;2023-07-16T13:38:59;2.85;;;2.33;;
14770;SDS011;7477;45.222;5.688;2023-07-16T13:42:18;3.75;;;2.40;;
14770;SDS011;7477;45.222;5.688;2023-07-16T13:45:38;3.30;;;2.40;;
14770;SDS011;7477;45.222;5.688;2023-07-16T13:48:58;3.42;;;2.05;;
14770;SDS011;7477;45.222;5.688;2023-07-16T13:52:18;6.50;;;2.35;;
14770;SDS011;7477;45.222;5.688;2023-07-16T13:55:37;2.78;;;1.98;;
14770;SDS011;7477;45.222;5.688;2023-07-16T13:58:57;4.03;;;2.40;;
14770;SDS011;7477;45.222;5.688;2023-07-16T14:02:16;3.25;;;2.10;;
14770;SDS011;7477;45.222;5.688;2023-07-16T14:05:35;6.50;;;2.17;;
14770;SDS011;7477;45.222;5.688;2023-07-16T14:08:58;2.83;;;2.20;;
14770;SDS011;7477;45.222;5.688;2023-07-16T14:12:17;2.80;;;1.80;;
14770;SDS011;7477;45.222;5.688;2023-07-16T14:15:36;6.93;;;2.10;;
14770;SDS011;7477;45.222;5.688;2023-07-16T14:18:55;2.67;;;2.40;;
14770;SDS011;7477;45.222;5.688;2023-07-16T14:22:15;7.15;;;2.38;;
14770;SDS011;7477;45.222;5.688;2023-07-16T14:25:34;3.33;;;2.28;;
14770;SDS011;7477;45.222;5.688;2023-07-16T14:28:53;3.65;;;2.30;;
14770;SDS011;7477;45.222;5.688;2023-07-16T14:32:13;4.22;;;2.38;;
14770;SDS011;7477;45.222;5.688;2023-07-16T14:35:33;2.53;;;2.15;;
14770;SDS011;7477;45.222;5.688;2023-07-16T14:38:52;3.13;;;2.17;;
14770;SDS011;7477;45.222;5.688;2023-07-16T14:42:11;4.00;;;2.10;;
14770;SDS011;7477;45.222;5.688;2023-07-16T14:45:31;3.13;;;2.10;;
14770;SDS011;7477;45.222;5.688;2023-07-16T14:48:51;1.80;;;1.52;;
14770;SDS011;7477;45.222;5.688;2023-07-16T14:52:14;2.08;;;1.88;;
14770;SDS011;7477;45.222;5.688;2023-07-16T14:55:33;3.83;;;2.20;;
14770;SDS011;7477;45.222;5.688;2023-07-16T14:58:52;3.78;;;2.60;;
14770;SDS011;7477;45.222;5.688;2023-07-16T15:02:11;2.42;;;1.88;;
14770;SDS011;7477;45.222;5.688;2023-07-16T15:05:31;4.90;;;2.50;;
14770;SDS011;7477;45.222;5.688;2023-07-16T15:08:50;3.53;;;1.80;;
14770;SDS011;7477;45.222;5.688;2023-07-16T15:12:10;3.20;;;2.33;;
14770;SDS011;7477;45.222;5.688;2023-07-16T15:15:29;2.72;;;2.10;;
14770;SDS011;7477;45.222;5.688;2023-07-16T15:18:48;2.97;;;2.00;;
14770;SDS011;7477;45.222;5.688;2023-07-16T15:22:07;5.20;;;2.13;;
14770;SDS011;7477;45.222;5.688;2023-07-16T15:25:26;5.20;;;2.58;;
14770;SDS011;7477;45.222;5.688;2023-07-16T15:28:45;3.55;;;2.25;;
14770;SDS011;7477;45.222;5.688;2023-07-16T15:32:05;3.42;;;2.13;;
14770;SDS011;7477;45.222;5.688;2023-07-16T15:35:25;5.72;;;2.67;;
14770;SDS011;7477;45.222;5.688;2023-07-16T15:38:44;4.40;;;2.22;;
14770;SDS011;7477;45.222;5.688;2023-07-16T15:42:03;4.75;;;2.10;;
14770;SDS011;7477;45.222;5.688;2023-07-16T15:45:22;5.25;;;2.05;;
14770;SDS011;7477;45.222;5.688;2023-07-16T15:48:42;5.43;;;2.45;;
14770;SDS011;7477;45.222;5.688;2023-07-16T15:52:02;3.42;;;2.30;;
14770;SDS011;7477;45.222;5.688;2023-07-16T15:55:22;2.22;;;2.00;;
14770;SDS011;7477;45.222;5.688;2023-07-16T15:58:42;4.32;;;2.65;;
14770;SDS011;7477;45.222;5.688;2023-07-16T16:02:02;3.97;;;2.03;;
14770;SDS011;7477;45.222;5.688;2023-07-16T16:05:23;4.25;;;2.60;;
14770;SDS011;7477;45.222;5.688;2023-07-16T16:08:42;3.45;;;2.50;;
14770;SDS011;7477;45.222;5.688;2023-07-16T16:12:01;3.40;;;2.17;;
14770;SDS011;7477;45.222;5.688;2023-07-16T16:15:22;2.28;;;2.08;;
14770;SDS011;7477;45.222;5.688;2023-07-16T16:18:41;3.03;;;2.30;;
14770;SDS011;7477;45.222;5.688;2023-07-16T16:22:01;6.07;;;2.45;;
14770;SDS011;7477;45.222;5.688;2023-07-16T16:25:20;4.03;;;2.05;;
14770;SDS011;7477;45.222;5.688;2023-07-16T16:28:39;3.20;;;2.20;;
14770;SDS011;7477;45.222;5.688;2023-07-16T16:31:58;4.32;;;2.10;;
14770;SDS011;7477;45.222;5.688;2023-07-16T16:35:17;4.88;;;2.63;;
14770;SDS011;7477;45.222;5.688;2023-07-16T16:38:37;3.55;;;2.15;;
14770;SDS011;7477;45.222;5.688;2023-07-16T16:41:56;4.93;;;2.65;;
14770;SDS011;7477;45.222;5.688;2023-07-16T16:45:15;4.85;;;2.28;;
14770;SDS011;7477;45.222;5.688;2023-07-16T16:48:35;3.58;;;2.30;;
14770;SDS011;7477;45.222;5.688;2023-07-16T16:51:56;5.32;;;2.88;;
14770;SDS011;7477;45.222;5.688;2023-07-16T16:55:15;6.28;;;2.53;;
14770;SDS011;7477;45.222;5.688;2023-07-16T16:58:34;5.20;;;2.63;;
14770;SDS011;7477;45.222;5.688;2023-07-16T17:01:54;4.75;;;2.42;;
14770;SDS011;7477;45.222;5.688;2023-07-16T17:05:13;4.00;;;2.58;;
14770;SDS011;7477;45.222;5.688;2023-07-16T17:08:33;5.13;;;2.63;;
14770;SDS011;7477;45.222;5.688;2023-07-16T17:11:52;3.08;;;2.25;;
14770;SDS011;7477;45.222;5.688;2023-07-16T17:15:11;3.40;;;2.55;;
14770;SDS011;7477;45.222;5.688;2023-07-16T17:18:31;4.22;;;2.40;;
14770;SDS011;7477;45.222;5.688;2023-07-16T17:21:50;3.92;;;2.30;;
14770;SDS011;7477;45.222;5.688;2023-07-16T17:25:10;4.57;;;2.58;;
14770;SDS011;7477;45.222;5.688;2023-07-16T17:28:29;3.63;;;2.40;;
14770;SDS011;7477;45.222;5.688;2023-07-16T17:31:48;4.40;;;2.33;;
14770;SDS011;7477;45.222;5.688;2023-07-16T17:35:08;4.70;;;2.80;;
14770;SDS011;7477;45.222;5.688;2023-07-16T17:38:27;3.10;;;2.67;;
14770;SDS011;7477;45.222;5.688;2023-07-16T17:41:46;2.53;;;2.05;;
14770;SDS011;7477;45.222;5.688;2023-07-16T17:45:06;4.47;;;2.88;;
14770;SDS011;7477;45.222;5.688;2023-07-16T17:48:26;4.68;;;3.05;;
14770;SDS011;7477;45.222;5.688;2023-07-16T17:51:45;5.07;;;2.30;;
14770;SDS011;7477;45.222;5.688;2023-07-16T17:55:04;4.65;;;2.83;;
14770;SDS011;7477;45.222;5.688;2023-07-16T17:58:24;4.20;;;2.50;;
14770;SDS011;7477;45.222;5.688;2023-07-16T18:01:44;2.75;;;2.03;;
14770;SDS011;7477;45.222;5.688;2023-07-16T18:05:04;6.97;;;2.63;;
14770;SDS011;7477;45.222;5.688;2023-07-16T18:08:26;5.43;;;2.60;;
14770;SDS011;7477;45.222;5.688;2023-07-16T18:11:46;3.15;;;2.47;;
14770;SDS011;7477;45.222;5.688;2023-07-16T18:15:05;4.82;;;2.22;;
14770;SDS011;7477;45.222;5.688;2023-07-16T18:18:25;3.55;;;2.33;;
14770;SDS011;7477;45.222;5.688;2023-07-16T18:21:45;4.43;;;2.55;;
14770;SDS011;7477;45.222;5.688;2023-07-16T18:25:06;4.28;;;2.67;;
14770;SDS011;7477;45.222;5.688;2023-07-16T18:28:26;3.78;;;2.25;;
14770;SDS011;7477;45.222;5.688;2023-07-16T18:31:46;6.43;;;2.38;;
14770;SDS011;7477;45.222;5.688;2023-07-16T18:35:05;8.95;;;2.45;;
14770;SDS011;7477;45.222;5.688;2023-07-16T18:38:25;6.75;;;2.45;;
14770;SDS011;7477;45.222;5.688;2023-07-16T18:41:44;4.03;;;2.47;;
14770;SDS011;7477;45.222;5.688;2023-07-16T18:45:03;2.83;;;2.25;;
14770;SDS011;7477;45.222;5.688;2023-07-16T18:48:24;3.25;;;2.25;;
14770;SDS011;7477;45.222;5.688;2023-07-16T18:51:43;5.78;;;2.63;;
14770;SDS011;7477;45.222;5.688;2023-07-16T18:55:03;6.53;;;2.35;;
14770;SDS011;7477;45.222;5.688;2023-07-16T18:58:23;4.05;;;2.22;;
14770;SDS011;7477;45.222;5.688;2023-07-16T19:01:42;5.00;;;2.58;;
14770;SDS011;7477;45.222;5.688;2023-07-16T19:05:01;4.45;;;2.53;;
14770;SDS011;7477;45.222;5.688;2023-07-16T19:08:22;4.30;;;2.60;;
14770;SDS011;7477;45.222;5.688;2023-07-16T19:11:43;6.90;;;2.47;;
14770;SDS011;7477;45.222;5.688;2023-07-16T19:15:02;5.38;;;3.25;;
14770;SDS011;7477;45.222;5.688;2023-07-16T19:18:22;5.85;;;2.78;;
14770;SDS011;7477;45.222;5.688;2023-07-16T19:21:42;4.93;;;2.50;;
14770;SDS011;7477;45.222;5.688;2023-07-16T19:25:01;3.45;;;2.55;;
14770;SDS011;7477;45.222;5.688;2023-07-16T19:28:21;6.03;;;2.60;;
14770;SDS011;7477;45.222;5.688;2023-07-16T19:31:41;5.90;;;2.78;;
14770;SDS011;7477;45.222;5.688;2023-07-16T19:35:00;4.60;;;2.80;;
14770;SDS011;7477;45.222;5.688;2023-07-16T19:38:20;3.22;;;2.38;;
14770;SDS011;7477;45.222;5.688;2023-07-16T19:41:39;4.80;;;2.60;;
14770;SDS011;7477;45.222;5.688;2023-07-16T19:44:58;3.20;;;1.98;;
14770;SDS011;7477;45.222;5.688;2023-07-16T19:48:18;5.10;;;2.40;;
14770;SDS011;7477;45.222;5.688;2023-07-16T19:51:38;3.15;;;2.35;;
14770;SDS011;7477;45.222;5.688;2023-07-16T19:54:57;2.70;;;2.22;;
14770;SDS011;7477;45.222;5.688;2023-07-16T19:58:19;4.80;;;2.80;;
14770;SDS011;7477;45.222;5.688;2023-07-16T20:01:39;2.40;;;2.20;;
14770;SDS011;7477;45.222;5.688;2023-07-16T20:04:59;5.95;;;2.60;;
14770;SDS011;7477;45.222;5.688;2023-07-16T20:08:19;4.28;;;3.00;;
14770;SDS011;7477;45.222;5.688;2023-07-16T20:11:41;3.17;;;2.03;;
14770;SDS011;7477;45.222;5.688;2023-07-16T20:15:01;2.97;;;2.42;;
14770;SDS011;7477;45.222;5.688;2023-07-16T20:18:21;5.90;;;2.75;;
14770;SDS011;7477;45.222;5.688;2023-07-16T20:21:41;5.28;;;2.60;;
14770;SDS011;7477;45.222;5.688;2023-07-16T20:25:00;3.88;;;2.28;;
14770;SDS011;7477;45.222;5.688;2023-07-16T20:28:19;2.88;;;2.30;;
14770;SDS011;7477;45.222;5.688;2023-07-16T20:31:38;4.95;;;2.63;;
14770;SDS011;7477;45.222;5.688;2023-07-16T20:34:57;8.07;;;2.70;;
14770;SDS011;7477;45.222;5.688;2023-07-16T20:38:18;3.45;;;2.60;;